createdAt,value
2023-03-16T00:09:08.196Z,68.61
2023-03-16T00:19:55.588Z,68.79
2023-03-16T00:30:12.535Z,69.75
2023-03-16T00:41:00.219Z,69.05
2023-03-16T00:51:31.949Z,68.98
2023-03-16T01:01:52.881Z,70.52
2023-03-16T01:12:08.606Z,71.00
2023-03-16T01:22:35.524Z,70.79
2023-03-16T01:32:58.942Z,71.12
2023-03-16T01:43:24.523Z,71.15
2023-03-16T01:53:32.357Z,70.65
2023-03-16T02:03:44.890Z,70.96
2023-03-16T02:14:14.350Z,71.44
2023-03-16T02:35:19.087Z,72.59
2023-03-16T02:45:57.153Z,73.14
2023-03-16T02:56:24.211Z,73.66
2023-03-16T03:06:48.604Z,73.96
2023-03-16T03:17:13.663Z,73.78
2023-03-16T03:27:43.716Z,74.35
2023-03-16T03:37:58.858Z,74.25
2023-03-16T03:48:19.331Z,74.39
2023-03-16T03:58:34.684Z,75.15
2023-03-16T04:08:43.545Z,74.77
2023-03-16T04:19:05.186Z,75.31
2023-03-16T04:29:18.825Z,75.14
2023-03-16T04:39:40.999Z,75.21
2023-03-16T04:50:03.397Z,75.78
2023-03-16T05:00:31.048Z,75.96
2023-03-16T05:11:05.697Z,77.11
2023-03-16T05:21:29.972Z,76.51
2023-03-16T05:31:42.552Z,75.60
2023-03-16T05:42:04.654Z,74.75
2023-03-16T05:52:31.020Z,75.21
2023-03-16T06:02:55.112Z,74.75
2023-03-16T06:13:07.812Z,75.27
2023-03-16T06:23:19.826Z,75.07
2023-03-16T06:33:53.024Z,75.34
2023-03-16T06:44:07.752Z,74.51
2023-03-16T06:54:27.451Z,74.77
2023-03-16T07:04:32.051Z,74.85
2023-03-16T07:14:35.540Z,74.09
2023-03-16T07:24:41.878Z,74.10
2023-03-16T07:34:45.640Z,73.50
2023-03-16T07:44:52.118Z,72.97
2023-03-16T07:54:55.694Z,71.51
2023-03-16T08:05:00.763Z,71.49
2023-03-16T08:15:06.033Z,71.96
2023-03-16T08:25:11.421Z,71.05
2023-03-16T08:35:20.678Z,71.65
2023-03-16T08:45:26.707Z,70.02
2023-03-16T08:55:30.646Z,69.32
2023-03-16T09:05:35.244Z,70.20
2023-03-16T09:15:38.958Z,68.40
2023-03-16T09:25:43.681Z,67.44
2023-03-16T09:35:47.195Z,66.06
2023-03-16T09:46:00.846Z,65.95
2023-03-16T09:56:06.321Z,66.48
2023-03-16T10:06:14.132Z,66.17
2023-03-16T10:16:23.342Z,67.55
2023-03-16T10:26:36.549Z,65.56
2023-03-16T10:36:42.519Z,65.20
2023-03-16T10:46:49.482Z,64.50
2023-03-16T10:56:52.796Z,63.48
2023-03-16T11:06:58.798Z,62.04
2023-03-16T11:17:04.569Z,60.58
2023-03-16T11:27:16.394Z,57.98
2023-03-16T11:37:31.394Z,55.88
2023-03-16T11:48:08.672Z,56.26
2023-03-16T11:58:29.437Z,54.81
2023-03-16T12:08:54.748Z,54.33
2023-03-16T12:19:01.408Z,54.17
2023-03-16T12:29:17.074Z,53.40
2023-03-16T12:39:33.783Z,52.16
2023-03-16T12:49:38.726Z,51.85
2023-03-16T12:59:47.517Z,53.06
2023-03-16T13:09:57.372Z,51.06
2023-03-16T13:20:10.226Z,49.39
2023-03-16T13:30:23.606Z,49.54
2023-03-16T13:40:28.450Z,48.54
2023-03-16T13:50:34.372Z,47.01
2023-03-16T14:00:38.834Z,45.37
2023-03-16T14:10:45.150Z,45.02
2023-03-16T14:20:48.393Z,48.17
2023-03-16T14:30:54.734Z,50.07
2023-03-16T14:40:59.698Z,48.72
2023-03-16T14:51:05.430Z,50.21
2023-03-16T15:01:14.974Z,50.62
2023-03-16T15:11:38.437Z,51.01
2023-03-16T15:21:41.796Z,49.28
2023-03-16T15:31:47.584Z,50.58
2023-03-16T15:41:50.982Z,52.55
2023-03-16T15:51:55.107Z,53.46
2023-03-16T16:01:58.255Z,54.18
2023-03-16T16:12:02.833Z,54.30
2023-03-16T16:22:06.042Z,55.53
2023-03-16T16:32:23.646Z,56.06
2023-03-16T16:42:26.770Z,56.44
2023-03-16T16:52:32.240Z,56.37
2023-03-16T17:02:44.672Z,56.29
2023-03-16T17:12:49.762Z,56.26
2023-03-16T17:22:55.052Z,56.53
2023-03-16T17:33:03.404Z,56.46
2023-03-16T17:43:10.914Z,56.40
2023-03-16T17:53:16.069Z,57.14
2023-03-16T18:03:19.917Z,57.26
2023-03-16T18:13:28.189Z,57.08
2023-03-16T18:23:33.628Z,57.16
2023-03-16T18:33:41.245Z,57.23
2023-03-16T18:43:44.754Z,56.72
2023-03-16T18:53:50.455Z,57.19
2023-03-16T19:03:54.343Z,57.08
2023-03-16T19:13:58.661Z,57.68
2023-03-16T19:24:04.439Z,57.23
2023-03-16T19:34:17.566Z,57.73
2023-03-16T19:44:22.307Z,57.91
2023-03-16T19:54:29.162Z,57.91
2023-03-16T20:04:32.556Z,57.80
2023-03-16T20:14:37.161Z,58.33
2023-03-16T20:24:40.291Z,58.36
2023-03-16T20:34:45.818Z,58.11
2023-03-16T20:44:49.677Z,57.93
2023-03-16T20:54:54.661Z,58.22
2023-03-16T21:05:00.191Z,57.99
2023-03-16T21:15:17.922Z,57.91
2023-03-16T21:25:24.971Z,57.95
2023-03-16T21:35:34.486Z,58.05
2023-03-16T21:45:37.475Z,57.35
2023-03-16T21:55:42.437Z,57.32
2023-03-16T22:05:46.386Z,56.74
2023-03-16T22:15:52.977Z,56.83
2023-03-16T22:25:56.928Z,56.85
2023-03-16T22:36:06.033Z,56.48
2023-03-16T22:46:19.009Z,56.65
2023-03-16T22:56:25.156Z,56.15
2023-03-16T23:06:33.654Z,56.00
2023-03-16T23:16:38.753Z,56.09
2023-03-16T23:27:01.541Z,56.22
2023-03-16T23:37:06.139Z,56.14
2023-03-16T23:47:11.885Z,56.03
2023-03-16T23:57:16.159Z,55.75
